LFBI/PIS METAR and TAF weather

Enter ICAO airport designator
Station Type Date Time Source
LFBI METAR 2020/09/22 07:30 UTC NOAA

LFBI 220730Z AUTO 20006KT 2800 -RA BR OVC003 17/17 Q1014 BECMG 5000 BR SCT020


Station Type Date Time Source
LFBI Decoded METAR 2020/09/22 07:30 UTC NOAA

Poitiers, France (LFBI) 46-35N 000-19E 120M
Sep 22, 2020 - 03:30 AM EDT / 2020.09.22 0730 UTC
Wind: from the SSW (200 degrees) at 7 MPH (6 KT):0
Visibility: 1 mile(s):0
Sky conditions: overcast
Weather: light rain; mist
Temperature: 62 F (17 C)
Dew Point: 62 F (17 C)
Relative Humidity: 100%
Pressure (altimeter): 29.94 in. Hg (1014 hPa)
ob: LFBI 220730Z AUTO 20006KT 2800 -RA BR OVC003 17/17 Q1014 BECMG 5000 BR SCT020
cycle: 7

Station Type Date Time Source
LFBI TAF 2020/09/22 06:25 UTC NOAA

TAF LFBI 220500Z 2206/2306 VRB03KT 5000 BR OVC006 PROB40 2206/2208 2000 BR OVC002 PROB30 2206/2207 0800 FG VV///
BECMG 2208/2210 24010KT SCT020

Example: see airport list